createdAt,value
2023-04-22T00:00:20.893Z,42.59
2023-04-22T00:03:09.454Z,42.70
2023-04-22T00:05:38.067Z,42.82
2023-04-22T00:08:06.642Z,42.93
2023-04-22T00:10:35.013Z,42.93
2023-04-22T00:13:03.240Z,43.10
2023-04-22T00:15:31.282Z,43.17
2023-04-22T00:17:59.717Z,43.26
2023-04-22T00:20:28.076Z,43.51
2023-04-22T00:22:56.238Z,43.65
2023-04-22T00:25:24.393Z,43.69
2023-04-22T00:27:52.642Z,43.68
2023-04-22T00:30:20.763Z,43.72
2023-04-22T00:32:49.261Z,43.72
2023-04-22T00:35:17.506Z,43.81
2023-04-22T00:37:46.073Z,43.93
2023-04-22T00:40:14.726Z,44.05
2023-04-22T00:42:44.821Z,44.23
2023-04-22T00:45:15.722Z,44.30
2023-04-22T00:47:46.088Z,44.36
2023-04-22T00:50:15.672Z,44.45
2023-04-22T00:52:43.767Z,44.42
2023-04-22T00:55:12.390Z,44.45
2023-04-22T00:57:41.053Z,44.17
2023-04-22T01:00:10.378Z,44.21
2023-04-22T01:02:39.074Z,44.31
2023-04-22T01:05:11.465Z,44.22
2023-04-22T01:18:19.952Z,44.75
2023-04-22T01:20:48.042Z,44.90
2023-04-22T01:23:20.326Z,44.77
2023-04-22T01:25:49.559Z,44.98
2023-04-22T01:28:18.119Z,44.93
2023-04-22T01:30:46.516Z,44.74
2023-04-22T01:33:15.561Z,45.04
2023-04-22T01:35:43.774Z,45.24
2023-04-22T01:38:12.910Z,45.20
2023-04-22T01:40:41.128Z,45.13
2023-04-22T01:43:09.354Z,45.09
2023-04-22T01:45:37.521Z,45.11
2023-04-22T01:48:07.386Z,45.07
2023-04-22T01:50:35.797Z,45.40
2023-04-22T01:53:04.088Z,45.43
2023-04-22T01:55:36.149Z,45.23
2023-04-22T01:58:05.448Z,45.30
2023-04-22T02:00:33.780Z,45.38
2023-04-22T02:03:02.158Z,45.38
2023-04-22T02:05:30.742Z,45.54
2023-04-22T02:07:59.322Z,45.69
2023-04-22T02:10:27.439Z,45.67
2023-04-22T02:12:56.096Z,45.91
2023-04-22T02:15:24.251Z,45.89
2023-04-22T02:17:55.402Z,45.89
2023-04-22T02:20:23.707Z,45.67
2023-04-22T02:22:51.991Z,45.79
2023-04-22T02:25:21.209Z,45.89
2023-04-22T02:27:51.490Z,46.06
2023-04-22T02:30:20.106Z,45.99
2023-04-22T02:32:48.438Z,46.09
2023-04-22T02:35:16.604Z,46.09
2023-04-22T02:37:44.740Z,46.12
2023-04-22T02:40:12.891Z,46.12
2023-04-22T02:42:41.140Z,46.23
2023-04-22T02:45:09.601Z,46.28
2023-04-22T02:47:37.761Z,46.12
2023-04-22T02:50:07.462Z,46.14
2023-04-22T02:52:35.979Z,46.06
2023-04-22T02:55:05.220Z,46.17
2023-04-22T02:57:33.597Z,46.28
2023-04-22T03:00:01.939Z,46.26
2023-04-22T03:02:30.497Z,46.46
2023-04-22T03:05:25.172Z,46.38
2023-04-22T03:07:53.807Z,46.56
2023-04-22T03:10:22.460Z,46.45
2023-04-22T03:12:52.061Z,46.60
2023-04-22T03:15:21.681Z,46.60
2023-04-22T03:17:50.272Z,46.59
2023-04-22T03:20:20.365Z,46.51
2023-04-22T03:22:48.727Z,46.56
2023-04-22T03:25:17.640Z,46.49
2023-04-22T03:27:56.020Z,46.49
2023-04-22T03:30:24.273Z,46.59
2023-04-22T03:32:53.722Z,46.81
2023-04-22T03:35:25.575Z,46.79
2023-04-22T03:37:54.267Z,46.93
2023-04-22T03:40:27.501Z,46.99
2023-04-22T03:42:56.036Z,46.81
2023-04-22T03:45:24.367Z,46.78
2023-04-22T03:48:05.835Z,46.85
2023-04-22T03:50:39.560Z,46.88
2023-04-22T03:53:08.565Z,46.80
2023-04-22T03:55:36.869Z,46.90
2023-04-22T03:58:05.184Z,46.86
2023-04-22T04:00:33.516Z,46.97
2023-04-22T04:03:10.044Z,46.77
2023-04-22T04:05:38.494Z,46.91
2023-04-22T04:08:06.819Z,46.89
2023-04-22T04:10:36.422Z,47.00
2023-04-22T04:13:05.053Z,47.09
2023-04-22T04:15:39.848Z,47.12
2023-04-22T04:18:09.797Z,47.10
2023-04-22T04:20:38.081Z,47.16
2023-04-22T04:23:06.278Z,47.18
2023-04-22T04:25:43.170Z,47.22
2023-04-22T04:28:14.131Z,47.34
2023-04-22T04:30:42.595Z,47.25
2023-04-22T04:33:12.500Z,47.34
2023-04-22T04:35:41.720Z,47.37
2023-04-22T04:38:10.494Z,47.53
2023-04-22T04:40:38.851Z,47.48
2023-04-22T04:43:14.568Z,47.64
2023-04-22T04:45:55.534Z,47.49
2023-04-22T04:48:29.996Z,47.63
2023-04-22T04:51:04.605Z,47.55
2023-04-22T04:53:34.265Z,47.68
2023-04-22T04:56:03.983Z,47.74
2023-04-22T04:58:32.291Z,47.83
2023-04-22T05:01:10.987Z,47.89
2023-04-22T05:03:39.836Z,48.06
2023-04-22T05:06:08.190Z,48.10
2023-04-22T05:08:38.450Z,48.13
2023-04-22T05:11:09.997Z,48.24
2023-04-22T05:13:38.071Z,48.31
2023-04-22T05:16:07.492Z,48.39
2023-04-22T05:18:36.459Z,48.47
2023-04-22T05:21:07.562Z,48.61
2023-04-22T05:23:36.196Z,48.51
2023-04-22T05:26:05.292Z,48.65
2023-04-22T05:28:33.653Z,48.73
2023-04-22T05:31:01.878Z,48.88
2023-04-22T05:33:31.241Z,48.93
2023-04-22T05:35:59.397Z,49.05
2023-04-22T05:38:28.232Z,48.89
2023-04-22T05:40:57.154Z,49.04
2023-04-22T05:43:26.160Z,49.25
2023-04-22T05:46:00.339Z,49.25
2023-04-22T05:48:28.817Z,49.29
2023-04-22T05:50:59.696Z,49.26
2023-04-22T05:53:29.515Z,49.35
2023-04-22T05:55:57.929Z,49.40
2023-04-22T05:58:26.090Z,49.51
2023-04-22T06:01:02.157Z,49.51
2023-04-22T06:03:44.918Z,49.58
2023-04-22T06:06:13.986Z,49.49
2023-04-22T06:08:42.207Z,49.54
2023-04-22T06:11:11.960Z,49.62
2023-04-22T06:13:40.428Z,49.62
2023-04-22T06:16:09.627Z,49.66
2023-04-22T06:18:38.328Z,49.60
2023-04-22T06:21:11.712Z,49.64
2023-04-22T06:23:39.896Z,49.60
2023-04-22T06:26:08.197Z,49.67
2023-04-22T06:28:37.453Z,49.54
2023-04-22T06:31:12.785Z,49.59
2023-04-22T06:33:41.351Z,49.54
2023-04-22T06:36:09.642Z,49.54
2023-04-22T06:38:38.169Z,49.51
2023-04-22T06:41:24.992Z,49.47
2023-04-22T06:43:56.048Z,49.54
2023-04-22T06:47:02.839Z,49.44
2023-04-22T06:49:47.655Z,49.51
2023-04-22T06:52:23.999Z,49.50
2023-04-22T06:54:54.020Z,49.49
2023-04-22T06:57:22.126Z,49.54
2023-04-22T06:59:51.118Z,49.54
2023-04-22T07:02:19.539Z,49.52
2023-04-22T07:04:47.874Z,49.44
2023-04-22T07:07:16.184Z,49.48
2023-04-22T07:09:44.332Z,49.53
2023-04-22T07:12:12.458Z,49.61
2023-04-22T07:14:44.948Z,49.58
2023-04-22T07:17:13.222Z,49.42
2023-04-22T07:19:41.695Z,49.45
2023-04-22T07:22:10.167Z,49.55
2023-04-22T07:24:39.070Z,49.56
2023-04-22T07:27:07.288Z,49.64
2023-04-22T07:29:35.470Z,49.56
2023-04-22T07:32:03.783Z,49.65
2023-04-22T07:34:32.164Z,49.69
2023-04-22T07:37:00.643Z,49.74
2023-04-22T07:39:28.748Z,49.69
2023-04-22T07:41:57.051Z,49.66
2023-04-22T07:44:25.350Z,49.57
2023-04-22T07:46:54.158Z,49.72
2023-04-22T07:49:22.506Z,49.73
2023-04-22T07:51:51.329Z,49.74
2023-04-22T07:54:19.396Z,49.72
2023-04-22T07:56:47.542Z,49.66
2023-04-22T07:59:15.830Z,49.78
2023-04-22T08:01:46.177Z,49.81
2023-04-22T08:04:14.874Z,49.78
2023-04-22T08:06:43.766Z,49.79
2023-04-22T08:09:12.279Z,49.86
2023-04-22T08:11:40.419Z,49.76
2023-04-22T08:14:08.571Z,49.86
2023-04-22T08:16:38.254Z,49.71
2023-04-22T08:19:06.525Z,49.78
2023-04-22T08:21:37.264Z,49.77
2023-04-22T08:24:06.415Z,49.86
2023-04-22T08:26:35.739Z,49.85
2023-04-22T08:29:04.755Z,49.89
2023-04-22T08:31:34.338Z,49.88
2023-04-22T08:34:02.631Z,49.94
2023-04-22T08:36:32.013Z,49.88
2023-04-22T08:39:01.164Z,49.77
2023-04-22T08:41:33.418Z,49.72
2023-04-22T08:44:01.940Z,49.71
2023-04-22T08:46:31.298Z,49.51
2023-04-22T08:49:09.083Z,49.40
2023-04-22T08:51:38.225Z,49.30
2023-04-22T08:54:06.527Z,49.26
2023-04-22T08:56:35.543Z,49.24
2023-04-22T08:59:04.624Z,49.38
2023-04-22T09:01:33.360Z,49.50
2023-04-22T09:04:02.675Z,49.51
2023-04-22T09:06:33.208Z,49.51
2023-04-22T09:09:01.869Z,49.59
2023-04-22T09:11:32.032Z,49.58
2023-04-22T09:14:00.445Z,49.63
2023-04-22T09:16:32.157Z,49.73
2023-04-22T09:19:01.376Z,49.76
2023-04-22T09:21:33.804Z,49.82
2023-04-22T09:24:03.182Z,49.93
2023-04-22T09:26:31.644Z,49.87
2023-04-22T09:29:01.130Z,50.01
2023-04-22T09:31:29.302Z,50.12
2023-04-22T09:33:59.165Z,50.14
2023-04-22T09:36:28.986Z,50.14
2023-04-22T09:38:59.831Z,50.16
2023-04-22T09:41:32.763Z,50.08
2023-04-22T09:44:02.566Z,50.12
2023-04-22T09:46:32.115Z,50.25
2023-04-22T09:49:00.906Z,50.19
2023-04-22T09:51:30.829Z,50.20
2023-04-22T09:54:09.057Z,50.25
2023-04-22T09:56:49.471Z,50.27
2023-04-22T09:59:30.481Z,50.28
2023-04-22T10:02:00.862Z,50.26
2023-04-22T10:04:30.073Z,50.32
2023-04-22T10:06:58.414Z,50.37
2023-04-22T10:09:26.555Z,50.38
2023-04-22T10:11:58.737Z,50.41
2023-04-22T10:14:27.870Z,50.46
2023-04-22T10:17:01.436Z,50.40
2023-04-22T10:19:31.940Z,50.40
2023-04-22T10:22:03.898Z,50.41
2023-04-22T10:24:37.668Z,50.37
2023-04-22T10:27:06.833Z,50.41
2023-04-22T10:29:40.485Z,50.56
2023-04-22T10:32:18.292Z,50.58
2023-04-22T10:34:47.959Z,50.45
2023-04-22T10:37:21.841Z,50.51
2023-04-22T10:40:11.319Z,50.50
2023-04-22T10:42:41.471Z,50.46
2023-04-22T10:45:14.326Z,50.41
2023-04-22T10:47:43.658Z,50.42
2023-04-22T10:50:26.767Z,50.40
2023-04-22T10:52:57.580Z,50.44
2023-04-22T10:55:26.790Z,50.41
2023-04-22T10:57:55.070Z,50.34
2023-04-22T11:00:28.051Z,50.35
2023-04-22T11:03:05.429Z,50.43
2023-04-22T11:05:35.736Z,50.36
2023-04-22T11:08:06.776Z,50.39
2023-04-22T11:10:44.314Z,50.43
2023-04-22T11:13:19.249Z,50.37
2023-04-22T11:15:54.900Z,50.34
2023-04-22T11:18:27.326Z,50.27
2023-04-22T11:20:56.787Z,50.27
2023-04-22T11:23:27.329Z,50.17
2023-04-22T11:25:57.783Z,50.03
2023-04-22T11:28:26.437Z,50.13
2023-04-22T11:31:12.339Z,50.06
2023-04-22T11:33:40.703Z,50.00
2023-04-22T11:36:12.376Z,49.96
2023-04-22T11:38:40.519Z,49.94
2023-04-22T11:41:08.942Z,49.98
2023-04-22T11:43:46.845Z,49.99
2023-04-22T11:46:15.206Z,50.06
2023-04-22T11:48:43.265Z,50.13
2023-04-22T11:51:11.896Z,49.94
2023-04-22T11:53:50.614Z,50.06
2023-04-22T11:56:18.782Z,50.00
2023-04-22T11:58:47.579Z,49.96
2023-04-22T12:01:16.239Z,50.07
2023-04-22T12:03:44.471Z,50.04
2023-04-22T12:06:12.907Z,49.94
2023-04-22T12:08:45.029Z,49.88
2023-04-22T12:11:13.702Z,49.78
2023-04-22T12:13:46.314Z,49.81
2023-04-22T12:16:19.052Z,49.87
2023-04-22T12:18:55.599Z,49.72
2023-04-22T12:21:28.493Z,49.74
2023-04-22T12:24:07.788Z,49.66
2023-04-22T12:26:38.089Z,49.57
2023-04-22T12:29:06.476Z,49.59
2023-04-22T12:31:34.842Z,49.43
2023-04-22T12:34:04.332Z,49.46
2023-04-22T12:36:32.634Z,49.23
2023-04-22T12:39:00.801Z,49.38
2023-04-22T12:41:29.018Z,49.33
2023-04-22T12:43:57.089Z,49.03
2023-04-22T12:46:26.890Z,48.93
2023-04-22T12:48:54.999Z,48.84
2023-04-22T12:51:23.099Z,48.81
2023-04-22T12:53:51.168Z,48.74
2023-04-22T12:56:19.282Z,48.59
2023-04-22T12:58:47.932Z,48.59
2023-04-22T13:01:16.193Z,48.50
2023-04-22T13:03:44.626Z,48.48
2023-04-22T13:06:12.978Z,48.37
2023-04-22T13:08:41.099Z,48.43
2023-04-22T13:11:09.159Z,48.20
2023-04-22T13:13:37.280Z,48.14
2023-04-22T13:16:05.525Z,48.08
2023-04-22T13:18:33.630Z,48.03
2023-04-22T13:21:01.700Z,48.06
2023-04-22T13:23:29.768Z,48.10
2023-04-22T13:25:58.178Z,48.01
2023-04-22T13:28:26.215Z,47.97
2023-04-22T13:30:55.423Z,48.02
2023-04-22T13:33:23.536Z,47.96
2023-04-22T13:35:51.601Z,48.05
2023-04-22T13:38:19.675Z,48.02
2023-04-22T13:40:48.269Z,48.06
2023-04-22T13:43:16.874Z,48.00
2023-04-22T13:45:45.500Z,48.02
2023-04-22T13:48:14.146Z,47.88
2023-04-22T13:50:42.943Z,47.91
2023-04-22T13:53:12.608Z,47.80
2023-04-22T13:55:40.884Z,47.92
2023-04-22T13:58:09.056Z,47.55
2023-04-22T14:00:37.179Z,47.54
2023-04-22T14:03:05.524Z,47.30
2023-04-22T14:05:33.880Z,47.24
2023-04-22T14:08:02.208Z,47.20
2023-04-22T14:10:30.503Z,47.17
2023-04-22T14:12:58.675Z,47.17
2023-04-22T14:15:26.786Z,47.22
2023-04-22T14:17:54.906Z,46.98
2023-04-22T14:20:25.241Z,46.80
2023-04-22T14:22:53.643Z,46.65
2023-04-22T14:25:22.015Z,46.56
2023-04-22T14:27:50.220Z,46.51
2023-04-22T14:30:19.731Z,46.50
2023-04-22T14:32:49.564Z,46.37
2023-04-22T14:35:18.445Z,46.50
2023-04-22T14:37:46.566Z,46.33
2023-04-22T14:40:15.112Z,46.17
2023-04-22T14:42:43.537Z,46.21
2023-04-22T14:45:11.853Z,45.99
2023-04-22T14:47:40.067Z,46.12
2023-04-22T14:50:08.378Z,46.09
2023-04-22T14:52:36.536Z,45.93
2023-04-22T14:55:15.558Z,46.04
2023-04-22T14:57:52.175Z,45.99
2023-04-22T15:00:20.459Z,45.75
2023-04-22T15:02:48.782Z,45.74
2023-04-22T15:05:17.178Z,45.61
2023-04-22T15:07:45.539Z,45.30
2023-04-22T15:10:14.418Z,45.51
2023-04-22T15:12:44.020Z,45.19
2023-04-22T15:15:16.874Z,45.05
2023-04-22T15:17:45.987Z,44.86
2023-04-22T15:20:14.936Z,44.78
2023-04-22T15:22:44.650Z,44.46
2023-04-22T15:25:13.025Z,44.38
2023-04-22T15:27:41.356Z,44.48
2023-04-22T15:30:11.142Z,44.23
2023-04-22T15:32:39.471Z,43.82
2023-04-22T15:35:08.612Z,43.68
2023-04-22T15:37:36.774Z,43.52
2023-04-22T15:40:06.954Z,43.16
2023-04-22T15:42:35.103Z,42.97
2023-04-22T15:45:04.071Z,43.21
2023-04-22T15:47:33.338Z,42.94
2023-04-22T15:50:09.304Z,42.75
2023-04-22T15:52:38.140Z,42.53
2023-04-22T15:55:07.807Z,42.40
2023-04-22T15:57:36.263Z,42.52
2023-04-22T16:00:12.468Z,42.47
2023-04-22T16:02:44.757Z,42.36
2023-04-22T16:05:14.719Z,42.10
2023-04-22T16:07:43.258Z,42.07
2023-04-22T16:10:11.368Z,42.11
2023-04-22T16:12:39.383Z,42.04
2023-04-22T16:15:08.322Z,41.85
2023-04-22T16:17:37.772Z,41.74
2023-04-22T16:20:06.595Z,41.59
2023-04-22T16:22:34.711Z,41.69
2023-04-22T16:25:03.047Z,41.43
2023-04-22T16:27:31.945Z,41.60
2023-04-22T16:30:00.023Z,41.61
2023-04-22T16:32:28.423Z,41.62
2023-04-22T16:34:56.616Z,41.42
2023-04-22T16:37:26.712Z,41.57
2023-04-22T16:39:55.400Z,41.36
2023-04-22T16:42:23.604Z,41.53
2023-04-22T16:44:51.659Z,41.56
2023-04-22T16:47:19.911Z,41.56
2023-04-22T16:49:48.061Z,41.58
2023-04-22T16:52:16.398Z,41.46
2023-04-22T16:54:44.476Z,41.48
2023-04-22T16:57:12.686Z,41.66
2023-04-22T16:59:41.293Z,41.85
2023-04-22T17:02:10.231Z,42.04
2023-04-22T17:04:38.618Z,41.73
2023-04-22T17:07:06.817Z,41.85
2023-04-22T17:09:34.841Z,41.85
2023-04-22T17:12:02.934Z,41.92
2023-04-22T17:14:31.259Z,41.86
2023-04-22T17:16:59.578Z,41.82
2023-04-22T17:19:27.910Z,41.85
2023-04-22T17:21:56.279Z,41.83
2023-04-22T17:24:25.131Z,42.07
2023-04-22T17:26:53.527Z,41.96
2023-04-22T17:29:21.968Z,41.80
2023-04-22T17:31:50.952Z,41.72
2023-04-22T17:34:19.375Z,41.89
2023-04-22T17:36:47.572Z,41.88
2023-04-22T17:39:15.934Z,41.77
2023-04-22T17:41:44.382Z,41.87
2023-04-22T17:44:12.570Z,42.03
2023-04-22T17:46:41.835Z,42.12
2023-04-22T17:49:10.395Z,42.25
2023-04-22T17:51:38.597Z,42.14
2023-04-22T17:54:06.830Z,42.46
2023-04-22T17:56:35.622Z,42.53
2023-04-22T17:59:04.433Z,42.65
2023-04-22T18:01:32.834Z,42.75
2023-04-22T18:04:01.253Z,42.85
2023-04-22T18:06:29.753Z,42.91
2023-04-22T18:08:58.253Z,43.07
2023-04-22T18:11:28.031Z,43.18
2023-04-22T18:13:56.244Z,43.49
2023-04-22T18:16:24.659Z,43.49
2023-04-22T18:18:52.782Z,43.66
2023-04-22T18:21:21.009Z,43.76
2023-04-22T18:23:49.267Z,43.97
2023-04-22T18:26:17.494Z,44.19
2023-04-22T18:28:46.478Z,44.28
2023-04-22T18:31:14.728Z,44.41
2023-04-22T18:33:42.858Z,44.47
2023-04-22T18:36:11.121Z,44.71
2023-04-22T18:38:39.489Z,44.80
2023-04-22T18:41:11.076Z,45.03
2023-04-22T18:43:39.689Z,45.18
2023-04-22T18:46:09.177Z,45.36
2023-04-22T18:48:37.426Z,45.51
2023-04-22T18:51:06.210Z,45.68
2023-04-22T18:53:34.497Z,45.93
2023-04-22T18:56:02.820Z,46.31
2023-04-22T18:58:31.251Z,46.56
2023-04-22T19:00:59.590Z,46.77
2023-04-22T19:03:28.158Z,47.05
2023-04-22T19:05:56.605Z,47.21
2023-04-22T19:08:24.966Z,47.40
2023-04-22T19:10:56.534Z,47.56
2023-04-22T19:13:29.832Z,47.74
2023-04-22T19:15:58.965Z,47.89
2023-04-22T19:18:27.168Z,48.14
2023-04-22T19:20:55.421Z,48.37
2023-04-22T19:23:23.781Z,48.59
2023-04-22T19:25:51.949Z,48.85
2023-04-22T19:28:20.035Z,48.98
2023-04-22T19:30:48.658Z,49.18
2023-04-22T19:33:16.779Z,49.40
2023-04-22T19:35:46.440Z,49.50
2023-04-22T19:38:19.271Z,49.61
2023-04-22T19:40:47.583Z,49.72
2023-04-22T19:43:17.200Z,49.82
2023-04-22T19:45:48.494Z,49.90
2023-04-22T19:48:17.178Z,49.86
2023-04-22T19:50:46.236Z,49.90
2023-04-22T19:53:14.951Z,49.86
2023-04-22T19:55:44.077Z,50.00
2023-04-22T19:58:12.391Z,50.08
2023-04-22T20:00:42.801Z,50.16
2023-04-22T20:03:13.163Z,50.10
2023-04-22T20:05:43.892Z,50.07
2023-04-22T20:08:13.612Z,50.15
2023-04-22T20:10:43.102Z,50.17
2023-04-22T20:13:11.454Z,50.27
2023-04-22T20:15:39.790Z,50.27
2023-04-22T20:18:08.275Z,50.31
2023-04-22T20:20:36.623Z,50.25
2023-04-22T20:23:10.471Z,50.21
2023-04-22T20:25:42.276Z,50.27
2023-04-22T20:28:11.078Z,50.36
2023-04-22T20:30:39.588Z,50.31
2023-04-22T20:33:08.140Z,50.40
2023-04-22T20:35:38.584Z,50.35
2023-04-22T20:38:08.540Z,50.29
2023-04-22T20:40:36.859Z,50.36
2023-04-22T20:43:05.116Z,50.46
2023-04-22T20:45:33.384Z,50.40
2023-04-22T20:48:01.555Z,50.40
2023-04-22T20:50:33.630Z,50.44
2023-04-22T20:53:03.317Z,50.53
2023-04-22T20:55:31.764Z,50.56
2023-04-22T20:57:59.907Z,50.65
2023-04-22T21:00:28.836Z,50.60
2023-04-22T21:02:57.319Z,50.59
2023-04-22T21:05:27.604Z,50.64
2023-04-22T21:07:56.386Z,50.66
2023-04-22T21:10:25.290Z,50.71
2023-04-22T21:12:54.487Z,50.76
2023-04-22T21:15:22.864Z,50.80
2023-04-22T21:17:55.103Z,50.77
2023-04-22T21:20:25.214Z,50.85
2023-04-22T21:22:54.561Z,50.76
2023-04-22T21:25:23.554Z,50.85
2023-04-22T21:27:54.335Z,50.90
2023-04-22T21:30:23.078Z,50.93
2023-04-22T21:32:51.181Z,50.89
2023-04-22T21:35:21.219Z,50.91
2023-04-22T21:37:52.324Z,50.85
2023-04-22T21:40:20.526Z,50.90
2023-04-22T21:42:49.451Z,50.99
2023-04-22T21:45:17.936Z,50.98
2023-04-22T21:47:46.126Z,50.97
2023-04-22T21:50:14.468Z,50.95
2023-04-22T21:52:42.711Z,51.02
2023-04-22T21:55:11.792Z,51.05
2023-04-22T21:57:39.974Z,51.05
2023-04-22T22:00:15.315Z,51.04
2023-04-22T22:02:44.103Z,51.15
2023-04-22T22:05:14.171Z,51.11
2023-04-22T22:07:45.178Z,51.11
2023-04-22T22:10:19.289Z,51.09
2023-04-22T22:12:48.328Z,50.96
2023-04-22T22:15:16.787Z,51.00
2023-04-22T22:17:45.742Z,50.91
2023-04-22T22:20:20.307Z,50.81
2023-04-22T22:22:48.963Z,50.76
2023-04-22T22:25:17.130Z,50.80
2023-04-22T22:27:49.436Z,50.68
2023-04-22T22:30:21.203Z,50.69
2023-04-22T22:32:49.675Z,50.77
2023-04-22T22:35:17.911Z,50.61
2023-04-22T22:37:46.318Z,50.66
2023-04-22T22:40:14.592Z,50.65
2023-04-22T22:42:42.710Z,50.60
2023-04-22T22:45:11.428Z,50.63
2023-04-22T22:47:39.802Z,50.52
2023-04-22T22:50:08.426Z,50.54
2023-04-22T22:52:36.626Z,50.51
2023-04-22T22:55:05.440Z,50.60
2023-04-22T22:57:33.696Z,50.58
2023-04-22T23:00:01.763Z,50.50
2023-04-22T23:02:30.129Z,50.53
2023-04-22T23:04:58.425Z,50.53
2023-04-22T23:07:26.486Z,50.43
2023-04-22T23:09:54.681Z,50.42
2023-04-22T23:12:22.932Z,50.38
2023-04-22T23:14:51.104Z,50.38
2023-04-22T23:17:19.222Z,50.33
2023-04-22T23:19:52.114Z,50.31
2023-04-22T23:22:20.972Z,50.30
2023-04-22T23:24:49.340Z,50.23
2023-04-22T23:27:18.064Z,50.24
2023-04-22T23:29:46.419Z,50.15
2023-04-22T23:32:16.310Z,50.18
2023-04-22T23:34:46.410Z,50.15
2023-04-22T23:37:15.131Z,50.13
2023-04-22T23:39:43.448Z,50.07
2023-04-22T23:42:11.557Z,50.01
2023-04-22T23:44:39.938Z,49.95
2023-04-22T23:47:08.289Z,49.96
2023-04-22T23:49:36.409Z,49.99
2023-04-22T23:52:04.655Z,49.96
2023-04-22T23:54:33.029Z,49.86
2023-04-22T23:57:01.322Z,49.84
2023-04-22T23:59:29.707Z,49.77
